sensor_id;sensor_type;location;lat;lon;timestamp;P1;durP1;ratioP1;P2;durP2;ratioP2
20336;SDS011;10326;53.660;10.200;2023-12-22T00:00:38;18.15;;;4.82;;
20336;SDS011;10326;53.660;10.200;2023-12-22T00:03:05;17.48;;;4.75;;
20336;SDS011;10326;53.660;10.200;2023-12-22T00:05:32;16.30;;;4.60;;
20336;SDS011;10326;53.660;10.200;2023-12-22T00:07:59;16.63;;;4.35;;
20336;SDS011;10326;53.660;10.200;2023-12-22T00:10:27;16.50;;;4.65;;
20336;SDS011;10326;53.660;10.200;2023-12-22T00:12:54;15.43;;;4.70;;
20336;SDS011;10326;53.660;10.200;2023-12-22T00:15:21;15.68;;;3.90;;
20336;SDS011;10326;53.660;10.200;2023-12-22T00:17:48;15.68;;;4.10;;
20336;SDS011;10326;53.660;10.200;2023-12-22T00:20:15;15.30;;;4.57;;
20336;SDS011;10326;53.660;10.200;2023-12-22T00:22:43;18.75;;;4.40;;
20336;SDS011;10326;53.660;10.200;2023-12-22T00:25:10;13.55;;;3.88;;
20336;SDS011;10326;53.660;10.200;2023-12-22T00:27:38;16.08;;;5.07;;
20336;SDS011;10326;53.660;10.200;2023-12-22T00:30:06;12.85;;;3.85;;
20336;SDS011;10326;53.660;10.200;2023-12-22T00:32:34;14.02;;;4.18;;
20336;SDS011;10326;53.660;10.200;2023-12-22T00:35:01;15.27;;;4.15;;
20336;SDS011;10326;53.660;10.200;2023-12-22T00:37:29;15.32;;;3.53;;
20336;SDS011;10326;53.660;10.200;2023-12-22T00:39:56;14.88;;;3.90;;
20336;SDS011;10326;53.660;10.200;2023-12-22T00:42:23;19.40;;;4.97;;
20336;SDS011;10326;53.660;10.200;2023-12-22T00:44:52;19.08;;;4.10;;
20336;SDS011;10326;53.660;10.200;2023-12-22T00:47:19;17.38;;;4.00;;
20336;SDS011;10326;53.660;10.200;2023-12-22T00:49:46;18.55;;;4.22;;
20336;SDS011;10326;53.660;10.200;2023-12-22T00:52:13;14.38;;;4.00;;
20336;SDS011;10326;53.660;10.200;2023-12-22T00:54:39;16.77;;;3.88;;
20336;SDS011;10326;53.660;10.200;2023-12-22T00:57:06;14.57;;;4.03;;
20336;SDS011;10326;53.660;10.200;2023-12-22T00:59:33;13.88;;;4.10;;
20336;SDS011;10326;53.660;10.200;2023-12-22T01:02:02;15.80;;;4.05;;
20336;SDS011;10326;53.660;10.200;2023-12-22T01:04:29;16.55;;;4.18;;
20336;SDS011;10326;53.660;10.200;2023-12-22T01:06:56;14.25;;;4.40;;
20336;SDS011;10326;53.660;10.200;2023-12-22T01:09:23;15.02;;;3.90;;
20336;SDS011;10326;53.660;10.200;2023-12-22T01:11:50;15.20;;;3.85;;
20336;SDS011;10326;53.660;10.200;2023-12-22T01:14:17;14.07;;;3.95;;
20336;SDS011;10326;53.660;10.200;2023-12-22T01:16:44;11.77;;;3.95;;
20336;SDS011;10326;53.660;10.200;2023-12-22T01:19:12;16.40;;;4.00;;
20336;SDS011;10326;53.660;10.200;2023-12-22T01:21:39;15.25;;;4.38;;
20336;SDS011;10326;53.660;10.200;2023-12-22T01:24:06;13.68;;;3.83;;
20336;SDS011;10326;53.660;10.200;2023-12-22T01:26:33;12.60;;;3.45;;
20336;SDS011;10326;53.660;10.200;2023-12-22T01:29:00;14.75;;;3.88;;
20336;SDS011;10326;53.660;10.200;2023-12-22T01:31:27;17.02;;;3.83;;
20336;SDS011;10326;53.660;10.200;2023-12-22T01:33:54;15.25;;;3.70;;
20336;SDS011;10326;53.660;10.200;2023-12-22T01:36:22;17.40;;;4.32;;
20336;SDS011;10326;53.660;10.200;2023-12-22T01:38:50;16.15;;;4.40;;
20336;SDS011;10326;53.660;10.200;2023-12-22T01:41:17;11.38;;;3.63;;
20336;SDS011;10326;53.660;10.200;2023-12-22T01:43:45;13.27;;;3.92;;
20336;SDS011;10326;53.660;10.200;2023-12-22T01:46:12;14.00;;;4.15;;
20336;SDS011;10326;53.660;10.200;2023-12-22T01:48:39;12.77;;;3.72;;
20336;SDS011;10326;53.660;10.200;2023-12-22T01:51:06;10.48;;;3.10;;
20336;SDS011;10326;53.660;10.200;2023-12-22T01:53:35;11.57;;;3.08;;
20336;SDS011;10326;53.660;10.200;2023-12-22T01:56:03;13.15;;;3.50;;
20336;SDS011;10326;53.660;10.200;2023-12-22T01:58:31;10.35;;;2.95;;
20336;SDS011;10326;53.660;10.200;2023-12-22T02:01:11;14.75;;;4.07;;
20336;SDS011;10326;53.660;10.200;2023-12-22T02:03:38;7.78;;;2.85;;
20336;SDS011;10326;53.660;10.200;2023-12-22T02:06:05;8.02;;;2.40;;
20336;SDS011;10326;53.660;10.200;2023-12-22T02:08:34;7.55;;;2.63;;
20336;SDS011;10326;53.660;10.200;2023-12-22T02:11:02;7.65;;;1.95;;
20336;SDS011;10326;53.660;10.200;2023-12-22T02:13:29;5.72;;;1.80;;
20336;SDS011;10326;53.660;10.200;2023-12-22T02:15:59;5.30;;;1.55;;
20336;SDS011;10326;53.660;10.200;2023-12-22T02:18:33;5.47;;;1.70;;
20336;SDS011;10326;53.660;10.200;2023-12-22T02:21:05;3.20;;;1.48;;
20336;SDS011;10326;53.660;10.200;2023-12-22T02:23:33;6.20;;;1.80;;
20336;SDS011;10326;53.660;10.200;2023-12-22T02:26:03;5.88;;;1.95;;
20336;SDS011;10326;53.660;10.200;2023-12-22T02:28:36;4.18;;;2.05;;
20336;SDS011;10326;53.660;10.200;2023-12-22T02:31:08;6.32;;;2.10;;
20336;SDS011;10326;53.660;10.200;2023-12-22T02:33:42;4.85;;;1.77;;
20336;SDS011;10326;53.660;10.200;2023-12-22T02:36:11;6.20;;;1.75;;
20336;SDS011;10326;53.660;10.200;2023-12-22T02:38:41;5.43;;;1.88;;
20336;SDS011;10326;53.660;10.200;2023-12-22T02:41:10;5.30;;;1.77;;
20336;SDS011;10326;53.660;10.200;2023-12-22T02:43:38;5.18;;;1.80;;
20336;SDS011;10326;53.660;10.200;2023-12-22T02:46:07;4.60;;;1.80;;
20336;SDS011;10326;53.660;10.200;2023-12-22T02:48:40;3.25;;;1.40;;
20336;SDS011;10326;53.660;10.200;2023-12-22T02:51:10;5.22;;;1.67;;
20336;SDS011;10326;53.660;10.200;2023-12-22T02:53:39;6.28;;;1.83;;
20336;SDS011;10326;53.660;10.200;2023-12-22T02:56:07;5.35;;;2.08;;
20336;SDS011;10326;53.660;10.200;2023-12-22T02:58:34;1.65;;;1.20;;
20336;SDS011;10326;53.660;10.200;2023-12-22T03:01:01;7.18;;;1.80;;
20336;SDS011;10326;53.660;10.200;2023-12-22T03:03:29;6.20;;;1.65;;
20336;SDS011;10326;53.660;10.200;2023-12-22T03:05:56;5.35;;;1.65;;
20336;SDS011;10326;53.660;10.200;2023-12-22T03:08:24;5.13;;;1.73;;
20336;SDS011;10326;53.660;10.200;2023-12-22T03:10:52;4.60;;;1.30;;
20336;SDS011;10326;53.660;10.200;2023-12-22T03:13:20;6.45;;;1.90;;
20336;SDS011;10326;53.660;10.200;2023-12-22T03:15:47;5.50;;;1.23;;
20336;SDS011;10326;53.660;10.200;2023-12-22T03:18:14;7.65;;;1.75;;
20336;SDS011;10326;53.660;10.200;2023-12-22T03:20:41;5.82;;;1.65;;
20336;SDS011;10326;53.660;10.200;2023-12-22T03:23:08;4.25;;;1.70;;
20336;SDS011;10326;53.660;10.200;2023-12-22T03:25:35;5.63;;;1.67;;
20336;SDS011;10326;53.660;10.200;2023-12-22T03:28:04;6.43;;;1.50;;
20336;SDS011;10326;53.660;10.200;2023-12-22T03:30:31;6.20;;;1.48;;
20336;SDS011;10326;53.660;10.200;2023-12-22T03:32:58;4.50;;;1.58;;
20336;SDS011;10326;53.660;10.200;2023-12-22T03:35:25;3.28;;;1.33;;
20336;SDS011;10326;53.660;10.200;2023-12-22T03:37:52;5.82;;;1.70;;
20336;SDS011;10326;53.660;10.200;2023-12-22T03:40:20;5.30;;;1.88;;
20336;SDS011;10326;53.660;10.200;2023-12-22T03:42:46;4.72;;;2.05;;
20336;SDS011;10326;53.660;10.200;2023-12-22T03:45:15;6.03;;;2.45;;
20336;SDS011;10326;53.660;10.200;2023-12-22T03:47:42;4.30;;;1.63;;
20336;SDS011;10326;53.660;10.200;2023-12-22T03:50:09;5.15;;;1.67;;
20336;SDS011;10326;53.660;10.200;2023-12-22T03:52:36;6.72;;;1.60;;
20336;SDS011;10326;53.660;10.200;2023-12-22T03:55:03;5.97;;;1.60;;
20336;SDS011;10326;53.660;10.200;2023-12-22T03:57:31;6.97;;;1.98;;
20336;SDS011;10326;53.660;10.200;2023-12-22T03:59:58;5.15;;;1.70;;
20336;SDS011;10326;53.660;10.200;2023-12-22T04:02:26;8.75;;;2.10;;
20336;SDS011;10326;53.660;10.200;2023-12-22T04:04:53;5.18;;;1.92;;
20336;SDS011;10326;53.660;10.200;2023-12-22T04:07:20;7.57;;;2.15;;
20336;SDS011;10326;53.660;10.200;2023-12-22T04:09:47;6.82;;;1.90;;
20336;SDS011;10326;53.660;10.200;2023-12-22T04:12:14;9.20;;;2.15;;
20336;SDS011;10326;53.660;10.200;2023-12-22T04:14:41;6.90;;;1.90;;
20336;SDS011;10326;53.660;10.200;2023-12-22T04:17:08;8.48;;;2.40;;
20336;SDS011;10326;53.660;10.200;2023-12-22T04:19:37;8.43;;;1.73;;
20336;SDS011;10326;53.660;10.200;2023-12-22T04:22:03;5.30;;;1.85;;
20336;SDS011;10326;53.660;10.200;2023-12-22T04:24:30;5.35;;;1.80;;
20336;SDS011;10326;53.660;10.200;2023-12-22T04:26:57;6.00;;;1.65;;
20336;SDS011;10326;53.660;10.200;2023-12-22T04:29:24;8.02;;;1.77;;
20336;SDS011;10326;53.660;10.200;2023-12-22T04:31:51;6.93;;;2.03;;
20336;SDS011;10326;53.660;10.200;2023-12-22T04:34:18;7.97;;;2.42;;
20336;SDS011;10326;53.660;10.200;2023-12-22T04:36:47;7.38;;;2.00;;
20336;SDS011;10326;53.660;10.200;2023-12-22T04:39:14;9.20;;;2.08;;
20336;SDS011;10326;53.660;10.200;2023-12-22T04:41:40;9.05;;;2.03;;
20336;SDS011;10326;53.660;10.200;2023-12-22T04:44:07;9.63;;;2.95;;
20336;SDS011;10326;53.660;10.200;2023-12-22T04:46:34;9.50;;;2.58;;
20336;SDS011;10326;53.660;10.200;2023-12-22T04:49:01;10.95;;;2.45;;
20336;SDS011;10326;53.660;10.200;2023-12-22T04:51:28;10.40;;;2.55;;
20336;SDS011;10326;53.660;10.200;2023-12-22T04:53:57;9.23;;;2.88;;
20336;SDS011;10326;53.660;10.200;2023-12-22T04:56:24;11.32;;;3.33;;
20336;SDS011;10326;53.660;10.200;2023-12-22T04:58:52;13.10;;;2.83;;
20336;SDS011;10326;53.660;10.200;2023-12-22T05:01:19;9.88;;;2.60;;
20336;SDS011;10326;53.660;10.200;2023-12-22T05:03:46;9.18;;;2.47;;
20336;SDS011;10326;53.660;10.200;2023-12-22T05:06:13;11.55;;;3.92;;
20336;SDS011;10326;53.660;10.200;2023-12-22T05:08:40;11.98;;;2.78;;
20336;SDS011;10326;53.660;10.200;2023-12-22T05:11:09;10.10;;;2.70;;
20336;SDS011;10326;53.660;10.200;2023-12-22T05:13:36;10.18;;;3.25;;
20336;SDS011;10326;53.660;10.200;2023-12-22T05:16:03;8.90;;;2.53;;
20336;SDS011;10326;53.660;10.200;2023-12-22T05:18:31;10.48;;;2.83;;
20336;SDS011;10326;53.660;10.200;2023-12-22T05:20:58;10.48;;;2.70;;
20336;SDS011;10326;53.660;10.200;2023-12-22T05:23:25;15.38;;;3.30;;
20336;SDS011;10326;53.660;10.200;2023-12-22T05:25:52;13.75;;;2.97;;
20336;SDS011;10326;53.660;10.200;2023-12-22T05:28:20;11.77;;;2.85;;
20336;SDS011;10326;53.660;10.200;2023-12-22T05:30:47;9.02;;;2.92;;
20336;SDS011;10326;53.660;10.200;2023-12-22T05:33:14;10.02;;;2.92;;
20336;SDS011;10326;53.660;10.200;2023-12-22T05:35:41;10.38;;;3.10;;
20336;SDS011;10326;53.660;10.200;2023-12-22T05:38:08;14.05;;;3.55;;
20336;SDS011;10326;53.660;10.200;2023-12-22T05:40:35;13.75;;;2.88;;
20336;SDS011;10326;53.660;10.200;2023-12-22T05:43:02;11.40;;;2.80;;
20336;SDS011;10326;53.660;10.200;2023-12-22T05:45:31;10.40;;;2.45;;
20336;SDS011;10326;53.660;10.200;2023-12-22T05:47:58;9.73;;;2.58;;
20336;SDS011;10326;53.660;10.200;2023-12-22T05:50:25;11.73;;;2.63;;
20336;SDS011;10326;53.660;10.200;2023-12-22T05:52:51;11.15;;;3.03;;
20336;SDS011;10326;53.660;10.200;2023-12-22T05:55:19;11.32;;;2.70;;
20336;SDS011;10326;53.660;10.200;2023-12-22T05:57:46;8.68;;;2.30;;
20336;SDS011;10326;53.660;10.200;2023-12-22T06:00:13;7.53;;;2.50;;
20336;SDS011;10326;53.660;10.200;2023-12-22T06:02:43;9.07;;;2.15;;
20336;SDS011;10326;53.660;10.200;2023-12-22T06:05:10;9.90;;;2.40;;
20336;SDS011;10326;53.660;10.200;2023-12-22T06:07:38;11.93;;;2.38;;
20336;SDS011;10326;53.660;10.200;2023-12-22T06:10:05;10.85;;;3.00;;
20336;SDS011;10326;53.660;10.200;2023-12-22T06:12:34;11.00;;;2.55;;
20336;SDS011;10326;53.660;10.200;2023-12-22T06:15:01;10.38;;;2.38;;
20336;SDS011;10326;53.660;10.200;2023-12-22T06:17:29;10.68;;;2.50;;
20336;SDS011;10326;53.660;10.200;2023-12-22T06:19:57;8.07;;;2.50;;
20336;SDS011;10326;53.660;10.200;2023-12-22T06:22:24;7.45;;;2.08;;
20336;SDS011;10326;53.660;10.200;2023-12-22T06:24:51;6.60;;;1.97;;
20336;SDS011;10326;53.660;10.200;2023-12-22T06:27:19;8.77;;;1.92;;
20336;SDS011;10326;53.660;10.200;2023-12-22T06:29:46;11.20;;;2.60;;
20336;SDS011;10326;53.660;10.200;2023-12-22T06:32:13;8.68;;;2.25;;
20336;SDS011;10326;53.660;10.200;2023-12-22T06:34:39;10.77;;;2.88;;
20336;SDS011;10326;53.660;10.200;2023-12-22T06:37:08;9.30;;;2.70;;
20336;SDS011;10326;53.660;10.200;2023-12-22T06:39:36;11.40;;;3.10;;
20336;SDS011;10326;53.660;10.200;2023-12-22T06:42:03;7.50;;;2.27;;
20336;SDS011;10326;53.660;10.200;2023-12-22T06:44:35;5.73;;;2.20;;
20336;SDS011;10326;53.660;10.200;2023-12-22T06:47:03;10.17;;;2.67;;
20336;SDS011;10326;53.660;10.200;2023-12-22T06:49:30;11.27;;;2.43;;
20336;SDS011;10326;53.660;10.200;2023-12-22T06:51:57;9.70;;;2.80;;
20336;SDS011;10326;53.660;10.200;2023-12-22T06:54:25;14.73;;;2.70;;
20336;SDS011;10326;53.660;10.200;2023-12-22T06:56:54;11.13;;;3.10;;
20336;SDS011;10326;53.660;10.200;2023-12-22T06:59:21;11.82;;;3.05;;
20336;SDS011;10326;53.660;10.200;2023-12-22T07:01:47;12.65;;;2.83;;
20336;SDS011;10326;53.660;10.200;2023-12-22T07:04:14;13.02;;;3.60;;
20336;SDS011;10326;53.660;10.200;2023-12-22T07:06:41;12.57;;;2.97;;
20336;SDS011;10326;53.660;10.200;2023-12-22T07:12:00;12.05;;;3.50;;
20336;SDS011;10326;53.660;10.200;2023-12-22T07:14:28;10.63;;;3.40;;
20336;SDS011;10326;53.660;10.200;2023-12-22T07:16:55;15.57;;;3.88;;
20336;SDS011;10326;53.660;10.200;2023-12-22T07:19:25;15.90;;;3.63;;
20336;SDS011;10326;53.660;10.200;2023-12-22T07:21:52;13.80;;;3.63;;
20336;SDS011;10326;53.660;10.200;2023-12-22T07:24:19;14.02;;;3.63;;
20336;SDS011;10326;53.660;10.200;2023-12-22T07:26:47;12.15;;;3.35;;
20336;SDS011;10326;53.660;10.200;2023-12-22T07:29:14;12.38;;;3.15;;
20336;SDS011;10326;53.660;10.200;2023-12-22T07:31:41;10.68;;;3.17;;
20336;SDS011;10326;53.660;10.200;2023-12-22T07:34:08;13.82;;;3.53;;
20336;SDS011;10326;53.660;10.200;2023-12-22T07:36:35;13.90;;;3.42;;
20336;SDS011;10326;53.660;10.200;2023-12-22T07:39:02;13.93;;;3.35;;
20336;SDS011;10326;53.660;10.200;2023-12-22T07:41:29;14.02;;;3.33;;
20336;SDS011;10326;53.660;10.200;2023-12-22T07:43:57;12.93;;;2.95;;
20336;SDS011;10326;53.660;10.200;2023-12-22T07:46:24;14.02;;;3.63;;
20336;SDS011;10326;53.660;10.200;2023-12-22T07:48:54;17.60;;;4.18;;
20336;SDS011;10326;53.660;10.200;2023-12-22T07:51:21;14.25;;;3.97;;
20336;SDS011;10326;53.660;10.200;2023-12-22T07:53:48;15.60;;;3.42;;
20336;SDS011;10326;53.660;10.200;2023-12-22T07:56:15;14.20;;;3.70;;
20336;SDS011;10326;53.660;10.200;2023-12-22T07:58:42;17.90;;;4.53;;
20336;SDS011;10326;53.660;10.200;2023-12-22T08:01:10;13.93;;;3.80;;
20336;SDS011;10326;53.660;10.200;2023-12-22T08:03:37;12.55;;;3.30;;
20336;SDS011;10326;53.660;10.200;2023-12-22T08:06:05;12.93;;;3.25;;
20336;SDS011;10326;53.660;10.200;2023-12-22T08:08:33;13.48;;;3.58;;
20336;SDS011;10326;53.660;10.200;2023-12-22T08:11:00;10.85;;;3.45;;
20336;SDS011;10326;53.660;10.200;2023-12-22T08:13:27;16.90;;;3.80;;
20336;SDS011;10326;53.660;10.200;2023-12-22T08:15:54;14.90;;;3.75;;
20336;SDS011;10326;53.660;10.200;2023-12-22T08:18:22;12.75;;;3.50;;
20336;SDS011;10326;53.660;10.200;2023-12-22T08:20:49;13.15;;;3.47;;
20336;SDS011;10326;53.660;10.200;2023-12-22T08:23:16;11.98;;;4.32;;
20336;SDS011;10326;53.660;10.200;2023-12-22T08:25:43;11.85;;;3.45;;
20336;SDS011;10326;53.660;10.200;2023-12-22T08:28:09;11.85;;;3.38;;
20336;SDS011;10326;53.660;10.200;2023-12-22T08:30:37;14.25;;;3.97;;
20336;SDS011;10326;53.660;10.200;2023-12-22T08:33:04;10.90;;;2.75;;
20336;SDS011;10326;53.660;10.200;2023-12-22T08:35:32;14.20;;;3.30;;
20336;SDS011;10326;53.660;10.200;2023-12-22T08:38:00;12.63;;;2.90;;
20336;SDS011;10326;53.660;10.200;2023-12-22T08:40:27;12.07;;;2.83;;
20336;SDS011;10326;53.660;10.200;2023-12-22T08:42:54;13.88;;;3.58;;
20336;SDS011;10326;53.660;10.200;2023-12-22T08:45:24;12.52;;;2.70;;
20336;SDS011;10326;53.660;10.200;2023-12-22T08:47:53;11.85;;;3.53;;
20336;SDS011;10326;53.660;10.200;2023-12-22T08:50:21;9.40;;;2.78;;
20336;SDS011;10326;53.660;10.200;2023-12-22T08:52:49;11.05;;;3.10;;
20336;SDS011;10326;53.660;10.200;2023-12-22T08:55:16;11.40;;;3.15;;
20336;SDS011;10326;53.660;10.200;2023-12-22T08:57:43;10.07;;;3.00;;
20336;SDS011;10326;53.660;10.200;2023-12-22T09:00:11;9.57;;;2.75;;
20336;SDS011;10326;53.660;10.200;2023-12-22T09:02:40;9.70;;;2.90;;
20336;SDS011;10326;53.660;10.200;2023-12-22T09:05:07;13.18;;;3.63;;
20336;SDS011;10326;53.660;10.200;2023-12-22T09:07:34;14.38;;;3.42;;
20336;SDS011;10326;53.660;10.200;2023-12-22T09:10:03;11.68;;;3.33;;
20336;SDS011;10326;53.660;10.200;2023-12-22T09:12:31;10.93;;;3.22;;
20336;SDS011;10326;53.660;10.200;2023-12-22T09:14:58;12.95;;;4.05;;
20336;SDS011;10326;53.660;10.200;2023-12-22T09:17:25;13.57;;;3.53;;
20336;SDS011;10326;53.660;10.200;2023-12-22T09:19:53;12.40;;;3.45;;
20336;SDS011;10326;53.660;10.200;2023-12-22T09:22:20;10.48;;;2.83;;
20336;SDS011;10326;53.660;10.200;2023-12-22T09:24:47;10.32;;;2.97;;
20336;SDS011;10326;53.660;10.200;2023-12-22T09:27:16;11.10;;;2.58;;
20336;SDS011;10326;53.660;10.200;2023-12-22T09:29:43;14.18;;;3.35;;
20336;SDS011;10326;53.660;10.200;2023-12-22T09:32:10;11.50;;;2.88;;
20336;SDS011;10326;53.660;10.200;2023-12-22T09:34:37;10.38;;;3.05;;
20336;SDS011;10326;53.660;10.200;2023-12-22T09:37:05;8.40;;;3.00;;
20336;SDS011;10326;53.660;10.200;2023-12-22T09:39:33;11.63;;;2.90;;
20336;SDS011;10326;53.660;10.200;2023-12-22T09:42:00;11.07;;;2.70;;
20336;SDS011;10326;53.660;10.200;2023-12-22T09:44:29;8.05;;;2.60;;
20336;SDS011;10326;53.660;10.200;2023-12-22T09:46:58;12.77;;;3.03;;
20336;SDS011;10326;53.660;10.200;2023-12-22T09:49:30;9.35;;;2.70;;
20336;SDS011;10326;53.660;10.200;2023-12-22T09:51:58;8.75;;;2.58;;
20336;SDS011;10326;53.660;10.200;2023-12-22T09:54:28;11.43;;;2.80;;
20336;SDS011;10326;53.660;10.200;2023-12-22T09:56:56;10.35;;;2.63;;
20336;SDS011;10326;53.660;10.200;2023-12-22T09:59:24;12.02;;;3.13;;
20336;SDS011;10326;53.660;10.200;2023-12-22T10:01:54;12.57;;;3.22;;
20336;SDS011;10326;53.660;10.200;2023-12-22T10:04:22;8.77;;;2.67;;
20336;SDS011;10326;53.660;10.200;2023-12-22T10:06:49;11.55;;;2.53;;
20336;SDS011;10326;53.660;10.200;2023-12-22T10:09:17;9.07;;;2.58;;
20336;SDS011;10326;53.660;10.200;2023-12-22T10:11:45;10.15;;;2.60;;
20336;SDS011;10326;53.660;10.200;2023-12-22T10:14:18;8.15;;;2.53;;
20336;SDS011;10326;53.660;10.200;2023-12-22T10:16:47;10.07;;;3.40;;
20336;SDS011;10326;53.660;10.200;2023-12-22T10:19:17;10.13;;;2.50;;
20336;SDS011;10326;53.660;10.200;2023-12-22T10:21:45;13.40;;;3.30;;
20336;SDS011;10326;53.660;10.200;2023-12-22T10:27:03;12.95;;;2.70;;
20336;SDS011;10326;53.660;10.200;2023-12-22T10:29:31;13.70;;;3.00;;
20336;SDS011;10326;53.660;10.200;2023-12-22T10:31:59;10.70;;;2.50;;
20336;SDS011;10326;53.660;10.200;2023-12-22T10:34:29;11.30;;;2.70;;
20336;SDS011;10326;53.660;10.200;2023-12-22T10:36:58;10.88;;;2.65;;
20336;SDS011;10326;53.660;10.200;2023-12-22T10:39:26;9.95;;;2.78;;
20336;SDS011;10326;53.660;10.200;2023-12-22T10:41:54;9.00;;;2.75;;
20336;SDS011;10326;53.660;10.200;2023-12-22T10:44:23;8.85;;;2.38;;
20336;SDS011;10326;53.660;10.200;2023-12-22T10:46:50;8.88;;;2.88;;
20336;SDS011;10326;53.660;10.200;2023-12-22T10:49:18;9.07;;;2.53;;
20336;SDS011;10326;53.660;10.200;2023-12-22T10:51:47;9.40;;;2.05;;
20336;SDS011;10326;53.660;10.200;2023-12-22T10:54:14;8.82;;;2.40;;
20336;SDS011;10326;53.660;10.200;2023-12-22T10:56:42;8.68;;;2.30;;
20336;SDS011;10326;53.660;10.200;2023-12-22T10:59:09;7.18;;;2.20;;
20336;SDS011;10326;53.660;10.200;2023-12-22T11:01:37;10.48;;;3.00;;
20336;SDS011;10326;53.660;10.200;2023-12-22T11:04:05;9.35;;;2.33;;
20336;SDS011;10326;53.660;10.200;2023-12-22T11:06:34;9.68;;;2.28;;
20336;SDS011;10326;53.660;10.200;2023-12-22T11:09:06;10.05;;;3.03;;
20336;SDS011;10326;53.660;10.200;2023-12-22T11:11:34;9.73;;;2.53;;
20336;SDS011;10326;53.660;10.200;2023-12-22T11:14:04;9.95;;;2.33;;
20336;SDS011;10326;53.660;10.200;2023-12-22T11:16:33;10.82;;;2.35;;
20336;SDS011;10326;53.660;10.200;2023-12-22T11:19:03;9.98;;;2.60;;
20336;SDS011;10326;53.660;10.200;2023-12-22T11:24:25;9.95;;;2.53;;
20336;SDS011;10326;53.660;10.200;2023-12-22T11:26:56;11.73;;;3.28;;
20336;SDS011;10326;53.660;10.200;2023-12-22T11:29:25;9.48;;;2.50;;
20336;SDS011;10326;53.660;10.200;2023-12-22T11:32:00;8.85;;;2.33;;
20336;SDS011;10326;53.660;10.200;2023-12-22T11:34:32;13.90;;;2.83;;
20336;SDS011;10326;53.660;10.200;2023-12-22T11:37:03;5.43;;;1.90;;
20336;SDS011;10326;53.660;10.200;2023-12-22T11:39:31;7.88;;;2.15;;
20336;SDS011;10326;53.660;10.200;2023-12-22T11:41:59;8.38;;;2.35;;
20336;SDS011;10326;53.660;10.200;2023-12-22T11:44:28;11.90;;;3.03;;
20336;SDS011;10326;53.660;10.200;2023-12-22T11:47:09;8.75;;;2.25;;
20336;SDS011;10326;53.660;10.200;2023-12-22T11:49:38;9.63;;;2.58;;
20336;SDS011;10326;53.660;10.200;2023-12-22T11:52:09;10.20;;;2.10;;
20336;SDS011;10326;53.660;10.200;2023-12-22T11:54:47;10.77;;;3.15;;
20336;SDS011;10326;53.660;10.200;2023-12-22T11:57:33;10.18;;;2.58;;
20336;SDS011;10326;53.660;10.200;2023-12-22T12:00:07;12.15;;;2.55;;
20336;SDS011;10326;53.660;10.200;2023-12-22T12:03:03;10.55;;;2.40;;
20336;SDS011;10326;53.660;10.200;2023-12-22T12:05:33;8.13;;;2.50;;
20336;SDS011;10326;53.660;10.200;2023-12-22T12:08:06;7.75;;;2.15;;
20336;SDS011;10326;53.660;10.200;2023-12-22T12:10:50;6.13;;;2.10;;
20336;SDS011;10326;53.660;10.200;2023-12-22T12:13:21;12.45;;;2.40;;
20336;SDS011;10326;53.660;10.200;2023-12-22T12:15:51;8.85;;;2.50;;
20336;SDS011;10326;53.660;10.200;2023-12-22T12:18:21;11.75;;;2.72;;
20336;SDS011;10326;53.660;10.200;2023-12-22T12:20:50;9.55;;;2.50;;
20336;SDS011;10326;53.660;10.200;2023-12-22T12:23:17;8.13;;;2.55;;
20336;SDS011;10326;53.660;10.200;2023-12-22T12:25:46;10.48;;;2.63;;
20336;SDS011;10326;53.660;10.200;2023-12-22T12:28:14;8.20;;;2.65;;
20336;SDS011;10326;53.660;10.200;2023-12-22T12:30:43;10.57;;;3.00;;
20336;SDS011;10326;53.660;10.200;2023-12-22T12:33:12;7.50;;;2.50;;
20336;SDS011;10326;53.660;10.200;2023-12-22T12:35:41;6.88;;;2.30;;
20336;SDS011;10326;53.660;10.200;2023-12-22T12:38:09;7.68;;;2.22;;
20336;SDS011;10326;53.660;10.200;2023-12-22T12:40:37;9.60;;;2.92;;
20336;SDS011;10326;53.660;10.200;2023-12-22T12:43:08;9.65;;;2.47;;
20336;SDS011;10326;53.660;10.200;2023-12-22T12:45:35;9.18;;;2.45;;
20336;SDS011;10326;53.660;10.200;2023-12-22T12:48:02;9.32;;;2.15;;
20336;SDS011;10326;53.660;10.200;2023-12-22T12:50:30;8.85;;;2.47;;
20336;SDS011;10326;53.660;10.200;2023-12-22T12:52:58;8.18;;;2.13;;
20336;SDS011;10326;53.660;10.200;2023-12-22T12:55:26;8.10;;;3.47;;
20336;SDS011;10326;53.660;10.200;2023-12-22T12:57:54;8.70;;;2.25;;
20336;SDS011;10326;53.660;10.200;2023-12-22T13:00:25;6.88;;;2.05;;
20336;SDS011;10326;53.660;10.200;2023-12-22T13:02:53;5.90;;;1.98;;
20336;SDS011;10326;53.660;10.200;2023-12-22T13:05:21;7.97;;;1.98;;
20336;SDS011;10326;53.660;10.200;2023-12-22T13:07:49;6.97;;;1.80;;
20336;SDS011;10326;53.660;10.200;2023-12-22T13:10:19;6.95;;;1.98;;
20336;SDS011;10326;53.660;10.200;2023-12-22T13:12:48;8.60;;;1.73;;
20336;SDS011;10326;53.660;10.200;2023-12-22T13:15:19;4.75;;;1.70;;
20336;SDS011;10326;53.660;10.200;2023-12-22T13:17:50;4.65;;;1.95;;
20336;SDS011;10326;53.660;10.200;2023-12-22T13:20:20;6.93;;;2.05;;
20336;SDS011;10326;53.660;10.200;2023-12-22T13:22:48;6.88;;;2.33;;
20336;SDS011;10326;53.660;10.200;2023-12-22T13:25:15;6.00;;;1.75;;
20336;SDS011;10326;53.660;10.200;2023-12-22T13:27:46;5.38;;;1.50;;
20336;SDS011;10326;53.660;10.200;2023-12-22T13:30:18;8.32;;;2.10;;
20336;SDS011;10326;53.660;10.200;2023-12-22T13:33:01;6.32;;;2.03;;
20336;SDS011;10326;53.660;10.200;2023-12-22T13:35:29;4.28;;;1.60;;
20336;SDS011;10326;53.660;10.200;2023-12-22T13:37:56;7.43;;;2.33;;
20336;SDS011;10326;53.660;10.200;2023-12-22T13:40:26;7.95;;;2.17;;
20336;SDS011;10326;53.660;10.200;2023-12-22T13:43:02;8.05;;;2.05;;
20336;SDS011;10326;53.660;10.200;2023-12-22T13:45:57;6.43;;;2.10;;
20336;SDS011;10326;53.660;10.200;2023-12-22T13:48:25;4.15;;;1.35;;
20336;SDS011;10326;53.660;10.200;2023-12-22T13:50:58;5.88;;;1.55;;
20336;SDS011;10326;53.660;10.200;2023-12-22T13:53:27;4.05;;;1.50;;
20336;SDS011;10326;53.660;10.200;2023-12-22T13:55:55;5.13;;;1.33;;
20336;SDS011;10326;53.660;10.200;2023-12-22T13:58:23;5.32;;;1.42;;
20336;SDS011;10326;53.660;10.200;2023-12-22T14:00:51;3.05;;;1.20;;
20336;SDS011;10326;53.660;10.200;2023-12-22T14:03:18;8.25;;;1.80;;
20336;SDS011;10326;53.660;10.200;2023-12-22T14:05:48;7.75;;;1.80;;
20336;SDS011;10326;53.660;10.200;2023-12-22T14:08:15;8.73;;;1.63;;
20336;SDS011;10326;53.660;10.200;2023-12-22T14:10:45;9.18;;;2.22;;
20336;SDS011;10326;53.660;10.200;2023-12-22T14:13:13;7.47;;;1.90;;
20336;SDS011;10326;53.660;10.200;2023-12-22T14:15:41;5.38;;;2.05;;
20336;SDS011;10326;53.660;10.200;2023-12-22T14:18:10;6.85;;;1.90;;
20336;SDS011;10326;53.660;10.200;2023-12-22T14:20:37;4.38;;;1.60;;
20336;SDS011;10326;53.660;10.200;2023-12-22T14:23:06;9.52;;;2.55;;
20336;SDS011;10326;53.660;10.200;2023-12-22T14:25:33;8.32;;;2.00;;
20336;SDS011;10326;53.660;10.200;2023-12-22T14:28:00;5.15;;;2.05;;
20336;SDS011;10326;53.660;10.200;2023-12-22T14:30:27;4.78;;;1.83;;
20336;SDS011;10326;53.660;10.200;2023-12-22T14:32:55;8.50;;;1.77;;
20336;SDS011;10326;53.660;10.200;2023-12-22T14:35:23;7.55;;;2.17;;
20336;SDS011;10326;53.660;10.200;2023-12-22T14:37:50;7.10;;;2.08;;
20336;SDS011;10326;53.660;10.200;2023-12-22T14:40:19;7.82;;;2.10;;
20336;SDS011;10326;53.660;10.200;2023-12-22T14:42:47;7.65;;;2.05;;